sensor_id;sensor_type;location;lat;lon;timestamp;P1;durP1;ratioP1;P2;durP2;ratioP2
40959;SDS011;27842;52.272;8.052;2023-03-01T00:01:27;23.97;;;10.97;;
40959;SDS011;27842;52.272;8.052;2023-03-01T00:03:54;22.00;;;10.43;;
40959;SDS011;27842;52.272;8.052;2023-03-01T00:06:21;22.40;;;11.00;;
40959;SDS011;27842;52.272;8.052;2023-03-01T00:08:47;23.97;;;11.63;;
40959;SDS011;27842;52.272;8.052;2023-03-01T00:11:14;23.00;;;11.60;;
40959;SDS011;27842;52.272;8.052;2023-03-01T00:13:45;23.00;;;11.80;;
40959;SDS011;27842;52.272;8.052;2023-03-01T00:16:13;21.37;;;11.53;;
40959;SDS011;27842;52.272;8.052;2023-03-01T00:18:41;22.55;;;12.10;;
40959;SDS011;27842;52.272;8.052;2023-03-01T00:21:08;20.80;;;11.50;;
40959;SDS011;27842;52.272;8.052;2023-03-01T00:23:34;21.07;;;11.27;;
40959;SDS011;27842;52.272;8.052;2023-03-01T00:26:00;22.70;;;12.03;;
40959;SDS011;27842;52.272;8.052;2023-03-01T00:28:26;21.93;;;12.03;;
40959;SDS011;27842;52.272;8.052;2023-03-01T00:30:51;22.67;;;12.13;;
40959;SDS011;27842;52.272;8.052;2023-03-01T00:33:17;23.77;;;12.10;;
40959;SDS011;27842;52.272;8.052;2023-03-01T00:35:43;24.90;;;12.03;;
40959;SDS011;27842;52.272;8.052;2023-03-01T00:38:08;22.43;;;11.60;;
40959;SDS011;27842;52.272;8.052;2023-03-01T00:40:35;21.50;;;10.77;;
40959;SDS011;27842;52.272;8.052;2023-03-01T00:43:01;22.83;;;11.57;;
40959;SDS011;27842;52.272;8.052;2023-03-01T00:45:27;20.50;;;11.33;;
40959;SDS011;27842;52.272;8.052;2023-03-01T00:47:55;23.40;;;11.43;;
40959;SDS011;27842;52.272;8.052;2023-03-01T00:50:21;24.57;;;12.27;;
40959;SDS011;27842;52.272;8.052;2023-03-01T00:52:51;21.50;;;11.70;;
40959;SDS011;27842;52.272;8.052;2023-03-01T00:55:18;22.33;;;11.90;;
40959;SDS011;27842;52.272;8.052;2023-03-01T00:57:43;21.17;;;11.23;;
40959;SDS011;27842;52.272;8.052;2023-03-01T01:00:09;22.43;;;11.70;;
40959;SDS011;27842;52.272;8.052;2023-03-01T01:02:36;23.60;;;12.37;;
40959;SDS011;27842;52.272;8.052;2023-03-01T01:05:02;23.47;;;11.83;;
40959;SDS011;27842;52.272;8.052;2023-03-01T01:07:28;23.40;;;12.13;;
40959;SDS011;27842;52.272;8.052;2023-03-01T01:09:54;21.53;;;11.80;;
40959;SDS011;27842;52.272;8.052;2023-03-01T01:12:20;22.20;;;11.40;;
40959;SDS011;27842;52.272;8.052;2023-03-01T01:14:45;24.07;;;11.67;;
40959;SDS011;27842;52.272;8.052;2023-03-01T01:17:11;23.30;;;11.20;;
40959;SDS011;27842;52.272;8.052;2023-03-01T01:19:37;20.97;;;11.30;;
40959;SDS011;27842;52.272;8.052;2023-03-01T01:22:02;21.77;;;11.53;;
40959;SDS011;27842;52.272;8.052;2023-03-01T01:24:28;22.90;;;11.53;;
40959;SDS011;27842;52.272;8.052;2023-03-01T01:26:54;23.63;;;12.40;;
40959;SDS011;27842;52.272;8.052;2023-03-01T01:29:20;21.27;;;11.30;;
40959;SDS011;27842;52.272;8.052;2023-03-01T01:31:45;23.03;;;11.87;;
40959;SDS011;27842;52.272;8.052;2023-03-01T01:34:13;23.37;;;11.60;;
40959;SDS011;27842;52.272;8.052;2023-03-01T01:39:06;20.13;;;10.37;;
40959;SDS011;27842;52.272;8.052;2023-03-01T01:41:32;21.67;;;10.87;;
40959;SDS011;27842;52.272;8.052;2023-03-01T01:44:18;20.63;;;10.53;;
40959;SDS011;27842;52.272;8.052;2023-03-01T01:47:07;20.30;;;10.73;;
40959;SDS011;27842;52.272;8.052;2023-03-01T01:49:52;24.10;;;11.27;;
40959;SDS011;27842;52.272;8.052;2023-03-01T01:52:22;21.67;;;10.77;;
40959;SDS011;27842;52.272;8.052;2023-03-01T01:54:56;22.10;;;11.07;;
40959;SDS011;27842;52.272;8.052;2023-03-01T01:57:46;22.60;;;11.40;;
40959;SDS011;27842;52.272;8.052;2023-03-01T02:00:16;22.93;;;10.63;;
40959;SDS011;27842;52.272;8.052;2023-03-01T02:02:44;20.23;;;10.33;;
40959;SDS011;27842;52.272;8.052;2023-03-01T02:07:48;21.37;;;10.60;;
40959;SDS011;27842;52.272;8.052;2023-03-01T02:10:15;22.33;;;11.50;;
40959;SDS011;27842;52.272;8.052;2023-03-01T02:12:41;20.17;;;10.47;;
40959;SDS011;27842;52.272;8.052;2023-03-01T02:15:07;22.53;;;10.67;;
40959;SDS011;27842;52.272;8.052;2023-03-01T02:17:32;21.13;;;10.50;;
40959;SDS011;27842;52.272;8.052;2023-03-01T02:20:05;21.03;;;10.93;;
40959;SDS011;27842;52.272;8.052;2023-03-01T02:22:49;21.93;;;10.87;;
40959;SDS011;27842;52.272;8.052;2023-03-01T02:28:43;20.63;;;10.33;;
40959;SDS011;27842;52.272;8.052;2023-03-01T02:30:38;21.63;;;10.87;;
40959;SDS011;27842;52.272;8.052;2023-03-01T02:33:24;21.93;;;10.83;;
40959;SDS011;27842;52.272;8.052;2023-03-01T02:35:51;21.40;;;11.30;;
40959;SDS011;27842;52.272;8.052;2023-03-01T02:38:18;20.67;;;10.33;;
40959;SDS011;27842;52.272;8.052;2023-03-01T02:40:44;21.37;;;10.90;;
40959;SDS011;27842;52.272;8.052;2023-03-01T02:43:10;20.13;;;11.07;;
40959;SDS011;27842;52.272;8.052;2023-03-01T02:45:38;21.70;;;10.73;;
40959;SDS011;27842;52.272;8.052;2023-03-01T02:48:13;22.43;;;10.37;;
40959;SDS011;27842;52.272;8.052;2023-03-01T02:50:45;21.07;;;10.73;;
40959;SDS011;27842;52.272;8.052;2023-03-01T02:53:23;20.13;;;10.13;;
40959;SDS011;27842;52.272;8.052;2023-03-01T02:56:00;21.30;;;10.63;;
40959;SDS011;27842;52.272;8.052;2023-03-01T02:58:26;23.10;;;10.90;;
40959;SDS011;27842;52.272;8.052;2023-03-01T03:00:51;22.17;;;10.07;;
40959;SDS011;27842;52.272;8.052;2023-03-01T03:03:17;21.23;;;10.27;;
40959;SDS011;27842;52.272;8.052;2023-03-01T03:05:45;21.50;;;10.30;;
40959;SDS011;27842;52.272;8.052;2023-03-01T03:08:12;21.60;;;10.10;;
40959;SDS011;27842;52.272;8.052;2023-03-01T03:10:39;18.83;;;9.40;;
40959;SDS011;27842;52.272;8.052;2023-03-01T03:13:07;19.60;;;9.33;;
40959;SDS011;27842;52.272;8.052;2023-03-01T03:15:35;20.52;;;9.10;;
40959;SDS011;27842;52.272;8.052;2023-03-01T03:18:02;19.90;;;9.33;;
40959;SDS011;27842;52.272;8.052;2023-03-01T03:20:29;19.80;;;8.98;;
40959;SDS011;27842;52.272;8.052;2023-03-01T03:22:55;20.70;;;10.23;;
40959;SDS011;27842;52.272;8.052;2023-03-01T03:25:23;21.47;;;9.83;;
40959;SDS011;27842;52.272;8.052;2023-03-01T03:27:50;18.83;;;9.13;;
40959;SDS011;27842;52.272;8.052;2023-03-01T03:30:22;18.50;;;9.23;;
40959;SDS011;27842;52.272;8.052;2023-03-01T03:32:55;20.03;;;9.70;;
40959;SDS011;27842;52.272;8.052;2023-03-01T03:35:26;17.63;;;8.40;;
40959;SDS011;27842;52.272;8.052;2023-03-01T03:37:55;20.27;;;9.50;;
40959;SDS011;27842;52.272;8.052;2023-03-01T03:40:38;19.30;;;9.80;;
40959;SDS011;27842;52.272;8.052;2023-03-01T03:43:12;20.70;;;9.60;;
40959;SDS011;27842;52.272;8.052;2023-03-01T03:45:39;19.93;;;9.50;;
40959;SDS011;27842;52.272;8.052;2023-03-01T03:48:06;19.30;;;9.77;;
40959;SDS011;27842;52.272;8.052;2023-03-01T03:50:34;18.75;;;9.02;;
40959;SDS011;27842;52.272;8.052;2023-03-01T03:53:00;19.50;;;9.67;;
40959;SDS011;27842;52.272;8.052;2023-03-01T03:55:26;20.80;;;9.07;;
40959;SDS011;27842;52.272;8.052;2023-03-01T03:57:56;18.42;;;9.00;;
40959;SDS011;27842;52.272;8.052;2023-03-01T04:00:23;20.50;;;9.10;;
40959;SDS011;27842;52.272;8.052;2023-03-01T04:02:49;18.23;;;8.47;;
40959;SDS011;27842;52.272;8.052;2023-03-01T04:05:16;19.37;;;8.93;;
40959;SDS011;27842;52.272;8.052;2023-03-01T04:07:43;19.17;;;9.43;;
40959;SDS011;27842;52.272;8.052;2023-03-01T04:10:10;18.47;;;8.97;;
40959;SDS011;27842;52.272;8.052;2023-03-01T04:12:38;20.23;;;9.68;;
40959;SDS011;27842;52.272;8.052;2023-03-01T04:15:05;19.57;;;9.30;;
40959;SDS011;27842;52.272;8.052;2023-03-01T04:17:41;19.60;;;9.03;;
40959;SDS011;27842;52.272;8.052;2023-03-01T04:20:09;20.13;;;9.33;;
40959;SDS011;27842;52.272;8.052;2023-03-01T04:22:36;20.20;;;9.90;;
40959;SDS011;27842;52.272;8.052;2023-03-01T04:25:02;20.50;;;8.77;;
40959;SDS011;27842;52.272;8.052;2023-03-01T04:27:29;20.83;;;10.00;;
40959;SDS011;27842;52.272;8.052;2023-03-01T04:29:55;18.07;;;9.20;;
40959;SDS011;27842;52.272;8.052;2023-03-01T04:32:20;19.90;;;9.67;;
40959;SDS011;27842;52.272;8.052;2023-03-01T04:34:46;18.73;;;8.63;;
40959;SDS011;27842;52.272;8.052;2023-03-01T04:37:11;19.07;;;9.87;;
40959;SDS011;27842;52.272;8.052;2023-03-01T04:39:37;19.03;;;8.93;;
40959;SDS011;27842;52.272;8.052;2023-03-01T04:42:10;21.27;;;9.77;;
40959;SDS011;27842;52.272;8.052;2023-03-01T04:44:42;17.93;;;9.00;;
40959;SDS011;27842;52.272;8.052;2023-03-01T04:47:08;20.97;;;9.67;;
40959;SDS011;27842;52.272;8.052;2023-03-01T04:49:33;18.87;;;9.53;;
40959;SDS011;27842;52.272;8.052;2023-03-01T04:51:59;17.60;;;8.63;;
40959;SDS011;27842;52.272;8.052;2023-03-01T04:54:27;18.93;;;9.20;;
40959;SDS011;27842;52.272;8.052;2023-03-01T04:56:53;19.70;;;9.57;;
40959;SDS011;27842;52.272;8.052;2023-03-01T04:59:19;18.83;;;8.83;;
40959;SDS011;27842;52.272;8.052;2023-03-01T05:01:47;19.87;;;9.50;;
40959;SDS011;27842;52.272;8.052;2023-03-01T05:04:16;23.00;;;10.02;;
40959;SDS011;27842;52.272;8.052;2023-03-01T05:06:42;20.07;;;9.10;;
40959;SDS011;27842;52.272;8.052;2023-03-01T05:09:08;19.73;;;8.70;;
40959;SDS011;27842;52.272;8.052;2023-03-01T05:11:33;18.17;;;9.00;;
40959;SDS011;27842;52.272;8.052;2023-03-01T05:14:07;19.13;;;9.20;;
40959;SDS011;27842;52.272;8.052;2023-03-01T05:16:34;20.17;;;9.27;;
40959;SDS011;27842;52.272;8.052;2023-03-01T05:19:01;18.90;;;9.30;;
40959;SDS011;27842;52.272;8.052;2023-03-01T05:21:36;19.10;;;8.77;;
40959;SDS011;27842;52.272;8.052;2023-03-01T05:24:22;19.13;;;9.20;;
40959;SDS011;27842;52.272;8.052;2023-03-01T05:26:48;18.57;;;8.97;;
40959;SDS011;27842;52.272;8.052;2023-03-01T05:29:13;18.00;;;8.57;;
40959;SDS011;27842;52.272;8.052;2023-03-01T05:31:39;18.77;;;9.13;;
40959;SDS011;27842;52.272;8.052;2023-03-01T05:34:04;20.70;;;9.97;;
40959;SDS011;27842;52.272;8.052;2023-03-01T05:36:31;20.67;;;9.90;;
40959;SDS011;27842;52.272;8.052;2023-03-01T05:38:56;17.77;;;8.70;;
40959;SDS011;27842;52.272;8.052;2023-03-01T05:41:22;18.90;;;9.30;;
40959;SDS011;27842;52.272;8.052;2023-03-01T05:43:47;21.40;;;9.60;;
40959;SDS011;27842;52.272;8.052;2023-03-01T05:46:13;19.77;;;9.73;;
40959;SDS011;27842;52.272;8.052;2023-03-01T05:48:40;18.57;;;9.80;;
40959;SDS011;27842;52.272;8.052;2023-03-01T05:51:05;21.73;;;9.50;;
40959;SDS011;27842;52.272;8.052;2023-03-01T05:53:31;20.90;;;9.87;;
40959;SDS011;27842;52.272;8.052;2023-03-01T05:55:57;18.83;;;9.37;;
40959;SDS011;27842;52.272;8.052;2023-03-01T05:58:23;20.13;;;9.43;;
40959;SDS011;27842;52.272;8.052;2023-03-01T06:00:49;19.37;;;9.60;;
40959;SDS011;27842;52.272;8.052;2023-03-01T06:03:15;21.33;;;9.80;;
40959;SDS011;27842;52.272;8.052;2023-03-01T06:05:42;21.70;;;9.83;;
40959;SDS011;27842;52.272;8.052;2023-03-01T06:08:08;20.93;;;9.77;;
40959;SDS011;27842;52.272;8.052;2023-03-01T06:10:35;18.67;;;9.30;;
40959;SDS011;27842;52.272;8.052;2023-03-01T06:13:02;20.63;;;9.27;;
40959;SDS011;27842;52.272;8.052;2023-03-01T06:15:28;23.43;;;9.13;;
40959;SDS011;27842;52.272;8.052;2023-03-01T06:17:54;21.53;;;9.10;;
40959;SDS011;27842;52.272;8.052;2023-03-01T06:20:24;21.10;;;9.10;;
40959;SDS011;27842;52.272;8.052;2023-03-01T06:22:52;21.47;;;9.87;;
40959;SDS011;27842;52.272;8.052;2023-03-01T06:25:19;21.83;;;10.23;;
40959;SDS011;27842;52.272;8.052;2023-03-01T06:27:46;20.92;;;10.02;;
40959;SDS011;27842;52.272;8.052;2023-03-01T06:30:13;19.77;;;10.40;;
40959;SDS011;27842;52.272;8.052;2023-03-01T06:32:41;20.60;;;9.10;;
40959;SDS011;27842;52.272;8.052;2023-03-01T06:35:08;21.07;;;10.80;;
40959;SDS011;27842;52.272;8.052;2023-03-01T06:37:35;19.43;;;10.27;;
40959;SDS011;27842;52.272;8.052;2023-03-01T06:40:01;21.73;;;9.93;;
40959;SDS011;27842;52.272;8.052;2023-03-01T06:42:34;20.77;;;9.87;;
40959;SDS011;27842;52.272;8.052;2023-03-01T06:45:00;20.40;;;9.17;;
40959;SDS011;27842;52.272;8.052;2023-03-01T06:47:26;18.90;;;9.70;;
40959;SDS011;27842;52.272;8.052;2023-03-01T06:49:51;21.53;;;10.20;;
40959;SDS011;27842;52.272;8.052;2023-03-01T06:52:17;20.23;;;10.50;;
40959;SDS011;27842;52.272;8.052;2023-03-01T06:54:42;23.80;;;11.53;;
40959;SDS011;27842;52.272;8.052;2023-03-01T06:57:08;25.97;;;12.13;;
40959;SDS011;27842;52.272;8.052;2023-03-01T06:59:33;23.43;;;10.93;;
40959;SDS011;27842;52.272;8.052;2023-03-01T07:01:59;23.00;;;11.73;;
40959;SDS011;27842;52.272;8.052;2023-03-01T07:04:25;21.17;;;11.33;;
40959;SDS011;27842;52.272;8.052;2023-03-01T07:06:53;25.30;;;12.03;;
40959;SDS011;27842;52.272;8.052;2023-03-01T07:09:20;27.27;;;12.33;;
40959;SDS011;27842;52.272;8.052;2023-03-01T07:11:49;23.95;;;12.10;;
40959;SDS011;27842;52.272;8.052;2023-03-01T07:14:15;24.73;;;12.13;;
40959;SDS011;27842;52.272;8.052;2023-03-01T07:16:41;26.73;;;12.13;;
40959;SDS011;27842;52.272;8.052;2023-03-01T07:19:07;25.20;;;12.50;;
40959;SDS011;27842;52.272;8.052;2023-03-01T07:21:32;25.43;;;12.73;;
40959;SDS011;27842;52.272;8.052;2023-03-01T07:23:58;24.97;;;11.70;;
40959;SDS011;27842;52.272;8.052;2023-03-01T07:26:23;25.43;;;12.60;;
40959;SDS011;27842;52.272;8.052;2023-03-01T07:28:49;31.20;;;12.47;;
40959;SDS011;27842;52.272;8.052;2023-03-01T07:31:15;24.93;;;12.83;;
40959;SDS011;27842;52.272;8.052;2023-03-01T07:33:40;25.87;;;12.10;;
40959;SDS011;27842;52.272;8.052;2023-03-01T07:36:06;25.07;;;13.90;;
40959;SDS011;27842;52.272;8.052;2023-03-01T07:38:32;24.33;;;11.10;;
40959;SDS011;27842;52.272;8.052;2023-03-01T07:41:02;25.37;;;11.77;;
40959;SDS011;27842;52.272;8.052;2023-03-01T07:43:29;24.23;;;12.57;;
40959;SDS011;27842;52.272;8.052;2023-03-01T07:45:58;26.17;;;12.47;;
40959;SDS011;27842;52.272;8.052;2023-03-01T07:48:26;25.03;;;11.93;;
40959;SDS011;27842;52.272;8.052;2023-03-01T07:50:53;25.17;;;12.87;;
40959;SDS011;27842;52.272;8.052;2023-03-01T07:53:18;22.57;;;12.67;;
40959;SDS011;27842;52.272;8.052;2023-03-01T07:55:44;24.47;;;12.53;;
40959;SDS011;27842;52.272;8.052;2023-03-01T07:58:09;25.03;;;12.43;;
40959;SDS011;27842;52.272;8.052;2023-03-01T08:00:35;25.47;;;12.23;;
40959;SDS011;27842;52.272;8.052;2023-03-01T08:03:01;22.93;;;12.30;;
40959;SDS011;27842;52.272;8.052;2023-03-01T08:05:27;25.40;;;12.03;;
40959;SDS011;27842;52.272;8.052;2023-03-01T08:07:53;23.00;;;12.03;;
40959;SDS011;27842;52.272;8.052;2023-03-01T08:10:19;25.23;;;11.60;;
40959;SDS011;27842;52.272;8.052;2023-03-01T08:12:45;27.43;;;11.37;;
40959;SDS011;27842;52.272;8.052;2023-03-01T08:15:10;24.10;;;12.00;;
40959;SDS011;27842;52.272;8.052;2023-03-01T08:17:36;22.67;;;11.13;;
40959;SDS011;27842;52.272;8.052;2023-03-01T08:20:02;23.63;;;12.13;;
40959;SDS011;27842;52.272;8.052;2023-03-01T08:22:29;21.63;;;11.37;;
40959;SDS011;27842;52.272;8.052;2023-03-01T08:24:54;24.37;;;12.00;;
40959;SDS011;27842;52.272;8.052;2023-03-01T08:27:20;21.70;;;12.00;;
40959;SDS011;27842;52.272;8.052;2023-03-01T08:29:46;22.37;;;12.67;;
40959;SDS011;27842;52.272;8.052;2023-03-01T08:32:12;24.57;;;12.27;;
40959;SDS011;27842;52.272;8.052;2023-03-01T08:34:37;22.80;;;11.90;;
40959;SDS011;27842;52.272;8.052;2023-03-01T08:37:06;21.23;;;11.93;;
40959;SDS011;27842;52.272;8.052;2023-03-01T08:39:32;26.10;;;12.20;;
40959;SDS011;27842;52.272;8.052;2023-03-01T08:41:57;20.50;;;11.27;;
40959;SDS011;27842;52.272;8.052;2023-03-01T08:44:23;25.13;;;11.63;;
40959;SDS011;27842;52.272;8.052;2023-03-01T08:46:49;20.77;;;11.40;;
40959;SDS011;27842;52.272;8.052;2023-03-01T08:49:17;24.23;;;12.57;;
40959;SDS011;27842;52.272;8.052;2023-03-01T08:51:44;21.50;;;11.40;;
40959;SDS011;27842;52.272;8.052;2023-03-01T08:54:14;22.03;;;12.40;;
40959;SDS011;27842;52.272;8.052;2023-03-01T08:56:41;23.20;;;12.07;;
40959;SDS011;27842;52.272;8.052;2023-03-01T08:59:07;22.17;;;11.33;;
40959;SDS011;27842;52.272;8.052;2023-03-01T09:01:33;19.70;;;10.97;;
40959;SDS011;27842;52.272;8.052;2023-03-01T09:03:59;22.83;;;11.03;;
40959;SDS011;27842;52.272;8.052;2023-03-01T09:06:25;22.23;;;11.13;;
40959;SDS011;27842;52.272;8.052;2023-03-01T09:08:51;20.37;;;10.07;;
40959;SDS011;27842;52.272;8.052;2023-03-01T09:11:17;20.90;;;10.50;;
40959;SDS011;27842;52.272;8.052;2023-03-01T09:13:46;20.98;;;9.35;;
40959;SDS011;27842;52.272;8.052;2023-03-01T09:16:13;20.50;;;8.97;;
40959;SDS011;27842;52.272;8.052;2023-03-01T09:18:40;18.63;;;8.83;;
40959;SDS011;27842;52.272;8.052;2023-03-01T09:21:07;20.27;;;9.67;;
40959;SDS011;27842;52.272;8.052;2023-03-01T09:23:38;21.10;;;8.10;;
40959;SDS011;27842;52.272;8.052;2023-03-01T09:26:09;17.13;;;7.13;;
40959;SDS011;27842;52.272;8.052;2023-03-01T09:28:36;17.23;;;6.87;;
40959;SDS011;27842;52.272;8.052;2023-03-01T09:31:02;16.27;;;6.07;;
40959;SDS011;27842;52.272;8.052;2023-03-01T09:33:29;16.70;;;6.23;;
40959;SDS011;27842;52.272;8.052;2023-03-01T09:36:00;15.37;;;5.27;;
40959;SDS011;27842;52.272;8.052;2023-03-01T09:38:27;14.27;;;5.70;;
40959;SDS011;27842;52.272;8.052;2023-03-01T09:40:53;14.17;;;5.30;;
40959;SDS011;27842;52.272;8.052;2023-03-01T09:46:13;14.87;;;4.93;;
40959;SDS011;27842;52.272;8.052;2023-03-01T09:48:44;14.23;;;5.20;;
40959;SDS011;27842;52.272;8.052;2023-03-01T09:51:17;14.17;;;5.33;;
40959;SDS011;27842;52.272;8.052;2023-03-01T09:53:47;14.70;;;5.27;;
40959;SDS011;27842;52.272;8.052;2023-03-01T10:01:41;15.87;;;5.73;;
40959;SDS011;27842;52.272;8.052;2023-03-01T10:04:23;16.40;;;5.77;;
40959;SDS011;27842;52.272;8.052;2023-03-01T10:09:36;16.17;;;6.10;;
40959;SDS011;27842;52.272;8.052;2023-03-01T10:12:04;16.13;;;5.60;;
40959;SDS011;27842;52.272;8.052;2023-03-01T10:14:44;14.80;;;5.20;;
40959;SDS011;27842;52.272;8.052;2023-03-01T10:17:32;16.23;;;5.27;;
40959;SDS011;27842;52.272;8.052;2023-03-01T10:20:10;15.47;;;5.90;;
40959;SDS011;27842;52.272;8.052;2023-03-01T10:22:50;16.57;;;5.73;;
40959;SDS011;27842;52.272;8.052;2023-03-01T10:28:10;16.00;;;5.37;;
40959;SDS011;27842;52.272;8.052;2023-03-01T10:30:44;16.33;;;5.90;;
40959;SDS011;27842;52.272;8.052;2023-03-01T10:33:21;14.70;;;5.57;;
40959;SDS011;27842;52.272;8.052;2023-03-01T10:35:50;14.13;;;5.30;;
40959;SDS011;27842;52.272;8.052;2023-03-01T10:38:17;15.03;;;5.47;;
40959;SDS011;27842;52.272;8.052;2023-03-01T10:43:17;16.73;;;5.73;;
40959;SDS011;27842;52.272;8.052;2023-03-01T10:45:43;16.20;;;5.70;;
40959;SDS011;27842;52.272;8.052;2023-03-01T10:58:38;13.43;;;5.30;;
40959;SDS011;27842;52.272;8.052;2023-03-01T11:01:25;14.70;;;5.17;;
40959;SDS011;27842;52.272;8.052;2023-03-01T11:06:30;15.23;;;6.07;;
40959;SDS011;27842;52.272;8.052;2023-03-01T11:08:56;18.03;;;6.43;;
40959;SDS011;27842;52.272;8.052;2023-03-01T11:11:31;15.27;;;6.07;;
40959;SDS011;27842;52.272;8.052;2023-03-01T11:14:16;15.57;;;5.57;;
40959;SDS011;27842;52.272;8.052;2023-03-01T11:16:44;16.97;;;6.63;;
40959;SDS011;27842;52.272;8.052;2023-03-01T11:24:40;15.87;;;6.23;;
40959;SDS011;27842;52.272;8.052;2023-03-01T11:27:33;13.60;;;5.70;;
40959;SDS011;27842;52.272;8.052;2023-03-01T11:32:32;15.43;;;6.47;;
40959;SDS011;27842;52.272;8.052;2023-03-01T11:35:27;16.87;;;7.30;;
40959;SDS011;27842;52.272;8.052;2023-03-01T11:43:21;14.93;;;5.90;;
40959;SDS011;27842;52.272;8.052;2023-03-01T11:51:57;15.70;;;5.97;;
40959;SDS011;27842;52.272;8.052;2023-03-01T11:57:37;17.63;;;6.50;;
40959;SDS011;27842;52.272;8.052;2023-03-01T12:00:37;14.07;;;5.60;;
40959;SDS011;27842;52.272;8.052;2023-03-01T12:11:47;14.27;;;5.13;;
40959;SDS011;27842;52.272;8.052;2023-03-01T12:17:10;13.57;;;5.20;;
40959;SDS011;27842;52.272;8.052;2023-03-01T12:30:45;13.77;;;5.35;;
40959;SDS011;27842;52.272;8.052;2023-03-01T12:46:49;10.70;;;4.13;;
40959;SDS011;27842;52.272;8.052;2023-03-01T12:52:27;11.43;;;4.43;;
40959;SDS011;27842;52.272;8.052;2023-03-01T12:55:00;15.10;;;4.73;;
40959;SDS011;27842;52.272;8.052;2023-03-01T12:57:32;13.37;;;4.83;;
40959;SDS011;27842;52.272;8.052;2023-03-01T13:02:45;14.63;;;4.90;;
40959;SDS011;27842;52.272;8.052;2023-03-01T13:13:39;13.97;;;3.93;;
40959;SDS011;27842;52.272;8.052;2023-03-01T13:16:19;12.43;;;4.00;;
40959;SDS011;27842;52.272;8.052;2023-03-01T13:18:48;11.53;;;4.30;;
40959;SDS011;27842;52.272;8.052;2023-03-01T13:21:13;11.33;;;4.00;;
40959;SDS011;27842;52.272;8.052;2023-03-01T13:23:55;12.83;;;4.27;;
40959;SDS011;27842;52.272;8.052;2023-03-01T13:26:21;13.13;;;4.10;;
40959;SDS011;27842;52.272;8.052;2023-03-01T13:28:48;13.27;;;4.63;;
40959;SDS011;27842;52.272;8.052;2023-03-01T13:33:48;11.53;;;3.83;;
40959;SDS011;27842;52.272;8.052;2023-03-01T13:44:21;12.37;;;4.03;;
40959;SDS011;27842;52.272;8.052;2023-03-01T14:27:45;11.13;;;3.77;;
40959;SDS011;27842;52.272;8.052;2023-03-01T14:30:24;9.73;;;3.60;;
40959;SDS011;27842;52.272;8.052;2023-03-01T14:33:00;11.03;;;3.73;;
40959;SDS011;27842;52.272;8.052;2023-03-01T14:35:31;11.10;;;4.00;;
40959;SDS011;27842;52.272;8.052;2023-03-01T14:37:59;12.63;;;4.13;;
40959;SDS011;27842;52.272;8.052;2023-03-01T14:40:43;10.83;;;3.90;;
40959;SDS011;27842;52.272;8.052;2023-03-01T14:43:09;10.00;;;3.80;;
40959;SDS011;27842;52.272;8.052;2023-03-01T14:45:36;11.43;;;3.80;;
40959;SDS011;27842;52.272;8.052;2023-03-01T14:48:03;13.40;;;3.80;;
40959;SDS011;27842;52.272;8.052;2023-03-01T14:50:31;11.47;;;3.60;;
40959;SDS011;27842;52.272;8.052;2023-03-01T14:52:59;10.47;;;3.90;;
40959;SDS011;27842;52.272;8.052;2023-03-01T14:55:33;11.80;;;3.83;;
40959;SDS011;27842;52.272;8.052;2023-03-01T14:58:05;11.47;;;3.70;;
40959;SDS011;27842;52.272;8.052;2023-03-01T15:00:36;11.43;;;4.10;;
40959;SDS011;27842;52.272;8.052;2023-03-01T15:03:06;11.37;;;4.10;;
40959;SDS011;27842;52.272;8.052;2023-03-01T15:05:38;11.80;;;3.60;;
40959;SDS011;27842;52.272;8.052;2023-03-01T15:08:05;9.53;;;3.60;;
40959;SDS011;27842;52.272;8.052;2023-03-01T15:10:34;10.53;;;3.73;;
40959;SDS011;27842;52.272;8.052;2023-03-01T15:13:19;9.70;;;3.47;;
40959;SDS011;27842;52.272;8.052;2023-03-01T15:15:48;12.23;;;3.90;;
40959;SDS011;27842;52.272;8.052;2023-03-01T15:18:17;11.23;;;3.70;;
40959;SDS011;27842;52.272;8.052;2023-03-01T15:20:45;9.90;;;3.30;;
40959;SDS011;27842;52.272;8.052;2023-03-01T15:23:20;8.43;;;3.40;;
40959;SDS011;27842;52.272;8.052;2023-03-01T15:25:54;10.57;;;3.43;;
40959;SDS011;27842;52.272;8.052;2023-03-01T15:28:30;9.47;;;3.10;;
40959;SDS011;27842;52.272;8.052;2023-03-01T15:31:24;12.02;;;3.53;;
40959;SDS011;27842;52.272;8.052;2023-03-01T15:33:49;13.00;;;3.80;;
40959;SDS011;27842;52.272;8.052;2023-03-01T15:45:11;9.97;;;3.33;;
40959;SDS011;27842;52.272;8.052;2023-03-01T15:47:50;7.97;;;3.10;;
40959;SDS011;27842;52.272;8.052;2023-03-01T15:52:58;11.13;;;3.10;;
40959;SDS011;27842;52.272;8.052;2023-03-01T15:55:26;6.80;;;3.03;;
40959;SDS011;27842;52.272;8.052;2023-03-01T15:58:02;10.38;;;3.50;;
40959;SDS011;27842;52.272;8.052;2023-03-01T16:00:37;10.13;;;3.17;;
40959;SDS011;27842;52.272;8.052;2023-03-01T16:03:03;11.63;;;3.57;;
40959;SDS011;27842;52.272;8.052;2023-03-01T16:05:30;9.83;;;3.60;;
40959;SDS011;27842;52.272;8.052;2023-03-01T16:08:00;8.30;;;2.87;;
40959;SDS011;27842;52.272;8.052;2023-03-01T16:10:27;9.27;;;3.33;;
40959;SDS011;27842;52.272;8.052;2023-03-01T16:12:56;9.20;;;3.20;;
40959;SDS011;27842;52.272;8.052;2023-03-01T16:15:23;10.85;;;3.30;;
40959;SDS011;27842;52.272;8.052;2023-03-01T16:17:53;9.70;;;3.47;;
40959;SDS011;27842;52.272;8.052;2023-03-01T16:20:19;10.10;;;3.10;;
40959;SDS011;27842;52.272;8.052;2023-03-01T16:22:45;9.53;;;3.00;;
40959;SDS011;27842;52.272;8.052;2023-03-01T16:25:16;10.00;;;3.57;;
40959;SDS011;27842;52.272;8.052;2023-03-01T16:27:44;13.27;;;4.43;;
40959;SDS011;27842;52.272;8.052;2023-03-01T16:30:11;10.73;;;3.20;;
40959;SDS011;27842;52.272;8.052;2023-03-01T16:32:38;12.33;;;4.77;;
40959;SDS011;27842;52.272;8.052;2023-03-01T16:35:05;11.37;;;4.57;;
40959;SDS011;27842;52.272;8.052;2023-03-01T16:37:32;9.77;;;3.63;;
40959;SDS011;27842;52.272;8.052;2023-03-01T16:39:58;9.80;;;2.90;;
40959;SDS011;27842;52.272;8.052;2023-03-01T16:42:24;10.03;;;3.40;;
40959;SDS011;27842;52.272;8.052;2023-03-01T16:44:59;9.77;;;3.40;;
40959;SDS011;27842;52.272;8.052;2023-03-01T16:47:25;10.43;;;3.67;;
40959;SDS011;27842;52.272;8.052;2023-03-01T16:49:51;9.60;;;3.73;;
40959;SDS011;27842;52.272;8.052;2023-03-01T16:52:17;10.80;;;3.53;;
40959;SDS011;27842;52.272;8.052;2023-03-01T16:54:43;11.20;;;3.80;;
40959;SDS011;27842;52.272;8.052;2023-03-01T16:57:09;10.67;;;3.40;;
40959;SDS011;27842;52.272;8.052;2023-03-01T16:59:34;11.47;;;3.77;;
40959;SDS011;27842;52.272;8.052;2023-03-01T17:02:01;10.00;;;3.40;;
40959;SDS011;27842;52.272;8.052;2023-03-01T17:04:26;11.77;;;3.80;;
40959;SDS011;27842;52.272;8.052;2023-03-01T17:06:52;11.07;;;3.60;;
40959;SDS011;27842;52.272;8.052;2023-03-01T17:09:17;10.20;;;3.20;;
40959;SDS011;27842;52.272;8.052;2023-03-01T17:11:46;11.30;;;3.97;;
40959;SDS011;27842;52.272;8.052;2023-03-01T17:14:13;11.80;;;3.67;;
40959;SDS011;27842;52.272;8.052;2023-03-01T17:16:40;9.17;;;3.60;;
40959;SDS011;27842;52.272;8.052;2023-03-01T17:19:05;13.20;;;3.63;;
40959;SDS011;27842;52.272;8.052;2023-03-01T17:21:31;11.70;;;3.70;;
40959;SDS011;27842;52.272;8.052;2023-03-01T17:23:57;13.93;;;4.00;;
40959;SDS011;27842;52.272;8.052;2023-03-01T17:26:23;10.07;;;3.70;;
40959;SDS011;27842;52.272;8.052;2023-03-01T17:28:49;12.67;;;4.17;;
40959;SDS011;27842;52.272;8.052;2023-03-01T17:31:16;9.77;;;3.87;;
40959;SDS011;27842;52.272;8.052;2023-03-01T17:33:42;11.97;;;3.87;;